sensor_id;sensor_type;location;lat;lon;timestamp;temperature;humidity
15483;DHT22;7843;50.330;7.312;2024-03-07T00:00:12;5.00;99.90
15483;DHT22;7843;50.330;7.312;2024-03-07T00:02:43;5.00;99.90
15483;DHT22;7843;50.330;7.312;2024-03-07T00:05:11;5.00;99.90
15483;DHT22;7843;50.330;7.312;2024-03-07T00:07:39;5.00;99.90
15483;DHT22;7843;50.330;7.312;2024-03-07T00:10:07;4.90;99.90
15483;DHT22;7843;50.330;7.312;2024-03-07T00:12:38;4.90;99.90
15483;DHT22;7843;50.330;7.312;2024-03-07T00:15:08;4.90;99.90
15483;DHT22;7843;50.330;7.312;2024-03-07T00:17:35;4.90;99.90
15483;DHT22;7843;50.330;7.312;2024-03-07T00:20:03;4.90;99.90
15483;DHT22;7843;50.330;7.312;2024-03-07T00:22:31;4.80;99.90
15483;DHT22;7843;50.330;7.312;2024-03-07T00:24:58;4.70;99.90
15483;DHT22;7843;50.330;7.312;2024-03-07T00:27:25;4.60;99.90
15483;DHT22;7843;50.330;7.312;2024-03-07T00:29:52;4.50;99.90
15483;DHT22;7843;50.330;7.312;2024-03-07T00:32:20;4.40;99.90
15483;DHT22;7843;50.330;7.312;2024-03-07T00:34:47;4.30;99.90
15483;DHT22;7843;50.330;7.312;2024-03-07T00:37:14;4.30;99.90
15483;DHT22;7843;50.330;7.312;2024-03-07T00:39:42;4.30;99.90
15483;DHT22;7843;50.330;7.312;2024-03-07T00:42:08;4.20;99.90
15483;DHT22;7843;50.330;7.312;2024-03-07T00:44:35;4.20;99.90
15483;DHT22;7843;50.330;7.312;2024-03-07T00:47:02;4.10;99.90
15483;DHT22;7843;50.330;7.312;2024-03-07T00:49:29;4.10;99.90
15483;DHT22;7843;50.330;7.312;2024-03-07T00:51:58;4.00;99.90
15483;DHT22;7843;50.330;7.312;2024-03-07T00:54:25;3.90;99.90
15483;DHT22;7843;50.330;7.312;2024-03-07T00:56:52;3.80;99.90
15483;DHT22;7843;50.330;7.312;2024-03-07T00:59:19;3.80;99.90
15483;DHT22;7843;50.330;7.312;2024-03-07T01:01:46;3.60;99.90
15483;DHT22;7843;50.330;7.312;2024-03-07T01:04:13;3.60;99.90
15483;DHT22;7843;50.330;7.312;2024-03-07T01:06:39;3.50;99.90
15483;DHT22;7843;50.330;7.312;2024-03-07T01:09:07;3.40;99.90
15483;DHT22;7843;50.330;7.312;2024-03-07T01:11:44;3.40;99.90
15483;DHT22;7843;50.330;7.312;2024-03-07T01:14:14;3.30;99.90
15483;DHT22;7843;50.330;7.312;2024-03-07T01:16:41;3.30;99.90
15483;DHT22;7843;50.330;7.312;2024-03-07T01:19:08;3.20;99.90
15483;DHT22;7843;50.330;7.312;2024-03-07T01:21:35;3.20;99.90
15483;DHT22;7843;50.330;7.312;2024-03-07T01:24:04;3.20;99.90
15483;DHT22;7843;50.330;7.312;2024-03-07T01:26:31;3.20;99.90
15483;DHT22;7843;50.330;7.312;2024-03-07T01:29:00;3.10;99.90
15483;DHT22;7843;50.330;7.312;2024-03-07T01:31:26;3.10;99.90
15483;DHT22;7843;50.330;7.312;2024-03-07T01:33:54;3.10;99.90
15483;DHT22;7843;50.330;7.312;2024-03-07T01:36:21;3.10;99.90
15483;DHT22;7843;50.330;7.312;2024-03-07T01:38:48;3.00;99.90
15483;DHT22;7843;50.330;7.312;2024-03-07T01:41:15;3.00;99.90
15483;DHT22;7843;50.330;7.312;2024-03-07T01:43:42;3.00;99.90
15483;DHT22;7843;50.330;7.312;2024-03-07T01:46:10;3.00;99.90
15483;DHT22;7843;50.330;7.312;2024-03-07T01:48:37;3.00;99.90
15483;DHT22;7843;50.330;7.312;2024-03-07T01:51:04;3.00;99.90
15483;DHT22;7843;50.330;7.312;2024-03-07T01:53:32;3.00;99.90
15483;DHT22;7843;50.330;7.312;2024-03-07T01:56:00;3.10;99.90
15483;DHT22;7843;50.330;7.312;2024-03-07T01:58:29;3.10;99.90
15483;DHT22;7843;50.330;7.312;2024-03-07T02:00:58;3.10;99.90
15483;DHT22;7843;50.330;7.312;2024-03-07T02:03:25;3.10;99.90
15483;DHT22;7843;50.330;7.312;2024-03-07T02:05:51;3.10;99.90
15483;DHT22;7843;50.330;7.312;2024-03-07T02:08:18;3.10;99.90
15483;DHT22;7843;50.330;7.312;2024-03-07T02:10:46;3.20;99.90
15483;DHT22;7843;50.330;7.312;2024-03-07T02:13:13;3.20;99.90
15483;DHT22;7843;50.330;7.312;2024-03-07T02:15:39;3.30;99.90
15483;DHT22;7843;50.330;7.312;2024-03-07T02:18:09;3.50;99.90
15483;DHT22;7843;50.330;7.312;2024-03-07T02:20:35;3.50;99.90
15483;DHT22;7843;50.330;7.312;2024-03-07T02:23:02;3.60;99.90
15483;DHT22;7843;50.330;7.312;2024-03-07T02:27:58;3.80;99.90
15483;DHT22;7843;50.330;7.312;2024-03-07T02:30:25;3.80;99.90
15483;DHT22;7843;50.330;7.312;2024-03-07T02:32:52;3.80;99.90
15483;DHT22;7843;50.330;7.312;2024-03-07T02:35:21;3.80;99.90
15483;DHT22;7843;50.330;7.312;2024-03-07T02:37:48;3.90;99.90
15483;DHT22;7843;50.330;7.312;2024-03-07T02:40:15;3.90;99.90
15483;DHT22;7843;50.330;7.312;2024-03-07T02:42:43;3.80;99.90
15483;DHT22;7843;50.330;7.312;2024-03-07T02:45:10;3.80;99.90
15483;DHT22;7843;50.330;7.312;2024-03-07T02:47:41;3.80;99.90
15483;DHT22;7843;50.330;7.312;2024-03-07T02:50:09;3.80;99.90
15483;DHT22;7843;50.330;7.312;2024-03-07T02:52:36;3.80;99.90
15483;DHT22;7843;50.330;7.312;2024-03-07T02:55:03;3.80;99.90
15483;DHT22;7843;50.330;7.312;2024-03-07T02:57:31;3.80;99.90
15483;DHT22;7843;50.330;7.312;2024-03-07T02:59:58;3.90;99.90
15483;DHT22;7843;50.330;7.312;2024-03-07T03:02:24;3.90;99.90
15483;DHT22;7843;50.330;7.312;2024-03-07T03:04:51;4.00;99.90
15483;DHT22;7843;50.330;7.312;2024-03-07T03:07:18;4.10;99.90
15483;DHT22;7843;50.330;7.312;2024-03-07T03:09:45;4.10;99.90
15483;DHT22;7843;50.330;7.312;2024-03-07T03:12:12;4.20;99.90
15483;DHT22;7843;50.330;7.312;2024-03-07T03:14:39;4.30;99.90
15483;DHT22;7843;50.330;7.312;2024-03-07T03:17:06;4.30;99.90
15483;DHT22;7843;50.330;7.312;2024-03-07T03:19:35;4.30;99.90
15483;DHT22;7843;50.330;7.312;2024-03-07T03:22:02;4.30;99.90
15483;DHT22;7843;50.330;7.312;2024-03-07T03:24:30;4.30;99.90
15483;DHT22;7843;50.330;7.312;2024-03-07T03:26:57;4.30;99.90
15483;DHT22;7843;50.330;7.312;2024-03-07T03:29:24;4.30;99.90
15483;DHT22;7843;50.330;7.312;2024-03-07T03:31:51;4.30;99.90
15483;DHT22;7843;50.330;7.312;2024-03-07T03:34:17;4.30;99.90
15483;DHT22;7843;50.330;7.312;2024-03-07T03:36:44;4.20;99.90
15483;DHT22;7843;50.330;7.312;2024-03-07T03:39:11;4.20;99.90
15483;DHT22;7843;50.330;7.312;2024-03-07T03:41:39;4.20;99.90
15483;DHT22;7843;50.330;7.312;2024-03-07T03:44:06;4.20;99.90
15483;DHT22;7843;50.330;7.312;2024-03-07T03:46:33;4.20;99.90
15483;DHT22;7843;50.330;7.312;2024-03-07T03:49:00;4.20;99.90
15483;DHT22;7843;50.330;7.312;2024-03-07T03:51:26;4.30;99.90
15483;DHT22;7843;50.330;7.312;2024-03-07T03:53:53;4.30;99.90
15483;DHT22;7843;50.330;7.312;2024-03-07T03:56:20;4.30;99.90
15483;DHT22;7843;50.330;7.312;2024-03-07T03:58:47;4.30;99.90
15483;DHT22;7843;50.330;7.312;2024-03-07T04:01:13;4.30;99.90
15483;DHT22;7843;50.330;7.312;2024-03-07T04:03:41;4.40;99.90
15483;DHT22;7843;50.330;7.312;2024-03-07T04:06:07;4.40;99.90
15483;DHT22;7843;50.330;7.312;2024-03-07T04:08:34;4.40;99.90
15483;DHT22;7843;50.330;7.312;2024-03-07T04:11:06;4.40;99.90
15483;DHT22;7843;50.330;7.312;2024-03-07T04:13:36;4.50;99.90
15483;DHT22;7843;50.330;7.312;2024-03-07T04:16:03;4.50;99.90
15483;DHT22;7843;50.330;7.312;2024-03-07T04:18:30;4.50;99.90
15483;DHT22;7843;50.330;7.312;2024-03-07T04:20:56;4.50;99.90
15483;DHT22;7843;50.330;7.312;2024-03-07T04:23:23;4.60;99.90
15483;DHT22;7843;50.330;7.312;2024-03-07T04:25:50;4.60;99.90
15483;DHT22;7843;50.330;7.312;2024-03-07T04:28:18;4.60;99.90
15483;DHT22;7843;50.330;7.312;2024-03-07T04:30:45;4.60;99.90
15483;DHT22;7843;50.330;7.312;2024-03-07T04:33:12;4.60;99.90
15483;DHT22;7843;50.330;7.312;2024-03-07T04:35:39;4.50;99.90
15483;DHT22;7843;50.330;7.312;2024-03-07T04:38:06;4.50;99.90
15483;DHT22;7843;50.330;7.312;2024-03-07T04:40:37;4.50;99.90
15483;DHT22;7843;50.330;7.312;2024-03-07T04:43:05;4.50;99.90
15483;DHT22;7843;50.330;7.312;2024-03-07T04:45:32;4.50;99.90
15483;DHT22;7843;50.330;7.312;2024-03-07T04:47:58;4.50;99.90
15483;DHT22;7843;50.330;7.312;2024-03-07T04:50:25;4.40;99.90
15483;DHT22;7843;50.330;7.312;2024-03-07T04:52:53;4.40;99.90
15483;DHT22;7843;50.330;7.312;2024-03-07T04:55:19;4.40;99.90
15483;DHT22;7843;50.330;7.312;2024-03-07T04:57:46;4.40;99.90
15483;DHT22;7843;50.330;7.312;2024-03-07T05:00:14;4.40;99.90
15483;DHT22;7843;50.330;7.312;2024-03-07T05:02:41;4.40;99.90
15483;DHT22;7843;50.330;7.312;2024-03-07T05:05:08;4.30;99.90
15483;DHT22;7843;50.330;7.312;2024-03-07T05:07:36;4.30;99.90
15483;DHT22;7843;50.330;7.312;2024-03-07T05:10:04;4.30;99.90
15483;DHT22;7843;50.330;7.312;2024-03-07T05:12:31;4.30;99.90
15483;DHT22;7843;50.330;7.312;2024-03-07T05:14:58;4.30;99.90
15483;DHT22;7843;50.330;7.312;2024-03-07T05:17:25;4.40;99.90
15483;DHT22;7843;50.330;7.312;2024-03-07T05:19:52;4.40;99.90
15483;DHT22;7843;50.330;7.312;2024-03-07T05:22:18;4.40;99.90
15483;DHT22;7843;50.330;7.312;2024-03-07T05:24:48;4.30;99.90
15483;DHT22;7843;50.330;7.312;2024-03-07T05:27:16;4.40;99.90
15483;DHT22;7843;50.330;7.312;2024-03-07T05:29:43;4.40;99.90
15483;DHT22;7843;50.330;7.312;2024-03-07T05:32:24;4.40;99.90
15483;DHT22;7843;50.330;7.312;2024-03-07T05:34:51;4.40;99.90
15483;DHT22;7843;50.330;7.312;2024-03-07T05:37:20;4.40;99.90
15483;DHT22;7843;50.330;7.312;2024-03-07T05:39:50;4.40;99.90
15483;DHT22;7843;50.330;7.312;2024-03-07T05:42:18;4.40;99.90
15483;DHT22;7843;50.330;7.312;2024-03-07T05:44:45;4.40;99.90
15483;DHT22;7843;50.330;7.312;2024-03-07T05:47:12;4.40;99.90
15483;DHT22;7843;50.330;7.312;2024-03-07T05:49:43;4.40;99.90
15483;DHT22;7843;50.330;7.312;2024-03-07T05:52:10;4.40;99.90
15483;DHT22;7843;50.330;7.312;2024-03-07T05:54:36;4.40;99.90
15483;DHT22;7843;50.330;7.312;2024-03-07T05:57:03;4.40;99.90
15483;DHT22;7843;50.330;7.312;2024-03-07T05:59:33;4.40;99.90
15483;DHT22;7843;50.330;7.312;2024-03-07T06:02:00;4.40;99.90
15483;DHT22;7843;50.330;7.312;2024-03-07T06:04:26;4.40;99.90
15483;DHT22;7843;50.330;7.312;2024-03-07T06:06:53;4.30;99.90
15483;DHT22;7843;50.330;7.312;2024-03-07T06:09:20;4.30;99.90
15483;DHT22;7843;50.330;7.312;2024-03-07T06:11:50;4.30;99.90
15483;DHT22;7843;50.330;7.312;2024-03-07T06:14:16;4.30;99.90
15483;DHT22;7843;50.330;7.312;2024-03-07T06:16:44;4.30;99.90
15483;DHT22;7843;50.330;7.312;2024-03-07T06:19:11;4.30;99.90
15483;DHT22;7843;50.330;7.312;2024-03-07T06:21:39;4.30;99.90
15483;DHT22;7843;50.330;7.312;2024-03-07T06:24:07;4.30;99.90
15483;DHT22;7843;50.330;7.312;2024-03-07T06:26:37;4.30;99.90
15483;DHT22;7843;50.330;7.312;2024-03-07T06:29:04;4.30;99.90
15483;DHT22;7843;50.330;7.312;2024-03-07T06:31:34;4.30;99.90
15483;DHT22;7843;50.330;7.312;2024-03-07T06:34:04;4.20;99.90
15483;DHT22;7843;50.330;7.312;2024-03-07T06:36:31;4.20;99.90
15483;DHT22;7843;50.330;7.312;2024-03-07T06:38:57;4.20;99.90
15483;DHT22;7843;50.330;7.312;2024-03-07T06:41:24;4.30;99.90
15483;DHT22;7843;50.330;7.312;2024-03-07T06:43:52;4.30;99.90
15483;DHT22;7843;50.330;7.312;2024-03-07T06:46:21;4.30;99.90
15483;DHT22;7843;50.330;7.312;2024-03-07T06:48:48;4.40;99.90
15483;DHT22;7843;50.330;7.312;2024-03-07T06:51:15;4.40;99.90
15483;DHT22;7843;50.330;7.312;2024-03-07T06:53:44;4.50;99.90
15483;DHT22;7843;50.330;7.312;2024-03-07T06:56:15;4.50;99.90
15483;DHT22;7843;50.330;7.312;2024-03-07T06:58:43;4.50;99.90
15483;DHT22;7843;50.330;7.312;2024-03-07T07:01:12;4.60;99.90
15483;DHT22;7843;50.330;7.312;2024-03-07T07:03:42;4.60;99.90
15483;DHT22;7843;50.330;7.312;2024-03-07T07:06:12;4.60;99.90
15483;DHT22;7843;50.330;7.312;2024-03-07T07:08:39;4.60;99.90
15483;DHT22;7843;50.330;7.312;2024-03-07T07:11:06;4.60;99.90
15483;DHT22;7843;50.330;7.312;2024-03-07T07:13:33;4.50;99.90
15483;DHT22;7843;50.330;7.312;2024-03-07T07:16:00;4.50;99.90
15483;DHT22;7843;50.330;7.312;2024-03-07T07:18:27;4.50;99.90
15483;DHT22;7843;50.330;7.312;2024-03-07T07:20:54;4.50;99.90
15483;DHT22;7843;50.330;7.312;2024-03-07T07:23:22;4.40;99.90
15483;DHT22;7843;50.330;7.312;2024-03-07T07:25:50;4.40;99.90
15483;DHT22;7843;50.330;7.312;2024-03-07T07:28:16;4.40;99.90
15483;DHT22;7843;50.330;7.312;2024-03-07T07:30:43;4.40;99.90
15483;DHT22;7843;50.330;7.312;2024-03-07T07:33:11;4.40;99.90
15483;DHT22;7843;50.330;7.312;2024-03-07T07:35:38;4.40;99.90
15483;DHT22;7843;50.330;7.312;2024-03-07T07:38:05;4.40;99.90
15483;DHT22;7843;50.330;7.312;2024-03-07T07:40:33;4.40;99.90
15483;DHT22;7843;50.330;7.312;2024-03-07T07:43:00;4.40;99.90
15483;DHT22;7843;50.330;7.312;2024-03-07T07:45:27;4.40;99.90
15483;DHT22;7843;50.330;7.312;2024-03-07T07:47:54;4.40;99.90
15483;DHT22;7843;50.330;7.312;2024-03-07T07:50:23;4.40;99.90
15483;DHT22;7843;50.330;7.312;2024-03-07T07:52:55;4.50;99.90
15483;DHT22;7843;50.330;7.312;2024-03-07T07:55:31;4.60;99.90
15483;DHT22;7843;50.330;7.312;2024-03-07T07:57:59;4.70;99.90
15483;DHT22;7843;50.330;7.312;2024-03-07T08:00:27;4.80;99.90
15483;DHT22;7843;50.330;7.312;2024-03-07T08:02:58;5.00;99.90
15483;DHT22;7843;50.330;7.312;2024-03-07T08:05:26;5.10;99.90
15483;DHT22;7843;50.330;7.312;2024-03-07T08:07:59;5.20;99.90
15483;DHT22;7843;50.330;7.312;2024-03-07T08:10:28;5.30;99.90
15483;DHT22;7843;50.330;7.312;2024-03-07T08:12:56;5.50;99.90
15483;DHT22;7843;50.330;7.312;2024-03-07T08:15:26;5.60;99.90
15483;DHT22;7843;50.330;7.312;2024-03-07T08:17:52;5.70;99.90
15483;DHT22;7843;50.330;7.312;2024-03-07T08:20:22;5.80;99.90
15483;DHT22;7843;50.330;7.312;2024-03-07T08:22:50;5.80;99.90
15483;DHT22;7843;50.330;7.312;2024-03-07T08:25:21;5.90;99.90
15483;DHT22;7843;50.330;7.312;2024-03-07T08:27:50;5.90;99.40
15483;DHT22;7843;50.330;7.312;2024-03-07T08:30:17;5.90;98.30
15483;DHT22;7843;50.330;7.312;2024-03-07T08:32:47;5.90;98.60
15483;DHT22;7843;50.330;7.312;2024-03-07T08:35:15;6.00;98.30
15483;DHT22;7843;50.330;7.312;2024-03-07T08:37:47;6.00;97.70
15483;DHT22;7843;50.330;7.312;2024-03-07T08:40:22;6.00;97.90
15483;DHT22;7843;50.330;7.312;2024-03-07T08:42:52;6.00;97.90
15483;DHT22;7843;50.330;7.312;2024-03-07T08:45:20;6.10;98.00
15483;DHT22;7843;50.330;7.312;2024-03-07T08:47:49;6.20;96.80
15483;DHT22;7843;50.330;7.312;2024-03-07T08:50:17;6.20;95.80
15483;DHT22;7843;50.330;7.312;2024-03-07T08:52:45;6.30;95.50
15483;DHT22;7843;50.330;7.312;2024-03-07T08:55:13;6.30;93.00
15483;DHT22;7843;50.330;7.312;2024-03-07T08:57:41;6.30;92.40
15483;DHT22;7843;50.330;7.312;2024-03-07T09:00:08;6.40;91.60
15483;DHT22;7843;50.330;7.312;2024-03-07T09:02:36;6.40;90.90
15483;DHT22;7843;50.330;7.312;2024-03-07T09:05:03;6.40;91.80
15483;DHT22;7843;50.330;7.312;2024-03-07T09:07:32;6.30;91.90
15483;DHT22;7843;50.330;7.312;2024-03-07T09:09:59;6.30;92.40
15483;DHT22;7843;50.330;7.312;2024-03-07T09:12:25;6.30;92.80
15483;DHT22;7843;50.330;7.312;2024-03-07T09:14:53;6.30;92.50
15483;DHT22;7843;50.330;7.312;2024-03-07T09:17:20;6.30;91.70
15483;DHT22;7843;50.330;7.312;2024-03-07T09:19:47;6.30;90.70
15483;DHT22;7843;50.330;7.312;2024-03-07T09:22:13;6.40;91.20
15483;DHT22;7843;50.330;7.312;2024-03-07T09:24:40;6.80;91.60
15483;DHT22;7843;50.330;7.312;2024-03-07T09:27:07;7.20;90.10
15483;DHT22;7843;50.330;7.312;2024-03-07T09:29:34;7.40;88.50
15483;DHT22;7843;50.330;7.312;2024-03-07T09:32:01;7.40;88.70
15483;DHT22;7843;50.330;7.312;2024-03-07T09:34:28;7.30;87.90
15483;DHT22;7843;50.330;7.312;2024-03-07T09:36:57;7.40;88.50
15483;DHT22;7843;50.330;7.312;2024-03-07T09:39:25;7.50;88.30
15483;DHT22;7843;50.330;7.312;2024-03-07T09:41:53;7.40;87.30
15483;DHT22;7843;50.330;7.312;2024-03-07T09:44:21;7.40;86.90
15483;DHT22;7843;50.330;7.312;2024-03-07T09:46:50;7.50;87.20
15483;DHT22;7843;50.330;7.312;2024-03-07T09:49:19;7.50;86.80
15483;DHT22;7843;50.330;7.312;2024-03-07T09:51:51;7.30;86.20
15483;DHT22;7843;50.330;7.312;2024-03-07T09:54:23;7.30;86.60
15483;DHT22;7843;50.330;7.312;2024-03-07T09:56:53;7.30;86.80
15483;DHT22;7843;50.330;7.312;2024-03-07T09:59:24;7.40;87.50
15483;DHT22;7843;50.330;7.312;2024-03-07T10:01:55;7.50;86.50
15483;DHT22;7843;50.330;7.312;2024-03-07T10:04:31;7.40;86.70
15483;DHT22;7843;50.330;7.312;2024-03-07T10:07:03;7.50;87.50
15483;DHT22;7843;50.330;7.312;2024-03-07T10:09:30;7.80;86.80
15483;DHT22;7843;50.330;7.312;2024-03-07T10:12:02;7.80;86.40
15483;DHT22;7843;50.330;7.312;2024-03-07T10:14:34;7.60;85.70
15483;DHT22;7843;50.330;7.312;2024-03-07T10:17:01;7.60;86.00
15483;DHT22;7843;50.330;7.312;2024-03-07T10:19:28;7.80;86.50
15483;DHT22;7843;50.330;7.312;2024-03-07T10:21:55;8.10;85.90
15483;DHT22;7843;50.330;7.312;2024-03-07T10:24:26;8.30;85.00
15483;DHT22;7843;50.330;7.312;2024-03-07T10:26:54;8.40;84.80
15483;DHT22;7843;50.330;7.312;2024-03-07T10:29:22;8.60;84.60
15483;DHT22;7843;50.330;7.312;2024-03-07T10:31:50;8.60;83.90
15483;DHT22;7843;50.330;7.312;2024-03-07T10:34:18;8.60;83.70
15483;DHT22;7843;50.330;7.312;2024-03-07T10:36:45;8.60;83.90
15483;DHT22;7843;50.330;7.312;2024-03-07T10:39:12;8.70;84.20
15483;DHT22;7843;50.330;7.312;2024-03-07T10:41:45;8.80;83.60
15483;DHT22;7843;50.330;7.312;2024-03-07T10:44:19;8.90;83.70
15483;DHT22;7843;50.330;7.312;2024-03-07T10:46:52;9.00;83.20
15483;DHT22;7843;50.330;7.312;2024-03-07T10:49:22;9.10;84.00
15483;DHT22;7843;50.330;7.312;2024-03-07T10:52:01;9.20;83.10
15483;DHT22;7843;50.330;7.312;2024-03-07T10:55:03;9.10;83.20
15483;DHT22;7843;50.330;7.312;2024-03-07T10:57:49;9.40;83.70
15483;DHT22;7843;50.330;7.312;2024-03-07T11:00:18;9.60;82.50
15483;DHT22;7843;50.330;7.312;2024-03-07T11:02:56;9.70;82.10
15483;DHT22;7843;50.330;7.312;2024-03-07T11:05:26;9.70;81.20
15483;DHT22;7843;50.330;7.312;2024-03-07T11:07:58;9.80;81.10
15483;DHT22;7843;50.330;7.312;2024-03-07T11:10:26;9.70;81.70
15483;DHT22;7843;50.330;7.312;2024-03-07T11:12:54;9.80;80.80
15483;DHT22;7843;50.330;7.312;2024-03-07T11:15:22;9.70;81.30
15483;DHT22;7843;50.330;7.312;2024-03-07T11:17:51;9.80;81.10
15483;DHT22;7843;50.330;7.312;2024-03-07T11:22:51;9.80;81.80
15483;DHT22;7843;50.330;7.312;2024-03-07T11:25:19;9.70;81.00
15483;DHT22;7843;50.330;7.312;2024-03-07T11:27:55;9.70;81.90
15483;DHT22;7843;50.330;7.312;2024-03-07T11:30:23;9.80;82.50
15483;DHT22;7843;50.330;7.312;2024-03-07T11:32:51;9.90;81.70
15483;DHT22;7843;50.330;7.312;2024-03-07T11:35:21;10.10;81.90
15483;DHT22;7843;50.330;7.312;2024-03-07T11:37:58;10.20;80.40
15483;DHT22;7843;50.330;7.312;2024-03-07T11:42:53;10.20;81.20
15483;DHT22;7843;50.330;7.312;2024-03-07T11:45:21;10.20;80.60
15483;DHT22;7843;50.330;7.312;2024-03-07T11:48:00;10.20;80.70
15483;DHT22;7843;50.330;7.312;2024-03-07T11:50:33;10.20;80.40
15483;DHT22;7843;50.330;7.312;2024-03-07T11:53:05;10.30;80.80
15483;DHT22;7843;50.330;7.312;2024-03-07T11:55:36;10.50;80.80
15483;DHT22;7843;50.330;7.312;2024-03-07T11:58:17;10.80;80.30
15483;DHT22;7843;50.330;7.312;2024-03-07T12:00:45;10.80;79.70
15483;DHT22;7843;50.330;7.312;2024-03-07T12:03:13;11.00;79.90
15483;DHT22;7843;50.330;7.312;2024-03-07T12:05:40;11.10;80.50
15483;DHT22;7843;50.330;7.312;2024-03-07T12:08:08;11.20;80.60
15483;DHT22;7843;50.330;7.312;2024-03-07T12:10:39;11.20;80.30
15483;DHT22;7843;50.330;7.312;2024-03-07T12:13:11;11.30;80.00
15483;DHT22;7843;50.330;7.312;2024-03-07T12:15:39;11.10;79.30
15483;DHT22;7843;50.330;7.312;2024-03-07T12:18:06;10.90;79.80
15483;DHT22;7843;50.330;7.312;2024-03-07T12:20:37;10.80;80.90
15483;DHT22;7843;50.330;7.312;2024-03-07T12:23:05;10.80;80.80
15483;DHT22;7843;50.330;7.312;2024-03-07T12:25:40;11.10;80.00
15483;DHT22;7843;50.330;7.312;2024-03-07T12:28:11;10.90;79.50
15483;DHT22;7843;50.330;7.312;2024-03-07T12:33:14;11.00;79.80
15483;DHT22;7843;50.330;7.312;2024-03-07T12:35:41;10.90;80.20
15483;DHT22;7843;50.330;7.312;2024-03-07T12:38:11;10.80;80.20
15483;DHT22;7843;50.330;7.312;2024-03-07T12:40:38;10.60;80.20
15483;DHT22;7843;50.330;7.312;2024-03-07T12:43:18;10.40;80.90
15483;DHT22;7843;50.330;7.312;2024-03-07T12:45:50;10.30;81.10
15483;DHT22;7843;50.330;7.312;2024-03-07T12:48:17;10.40;81.90
15483;DHT22;7843;50.330;7.312;2024-03-07T12:50:48;10.50;82.20
15483;DHT22;7843;50.330;7.312;2024-03-07T12:53:24;10.50;81.10
15483;DHT22;7843;50.330;7.312;2024-03-07T12:55:55;10.50;82.30
15483;DHT22;7843;50.330;7.312;2024-03-07T12:58:22;10.40;82.10
15483;DHT22;7843;50.330;7.312;2024-03-07T13:00:52;10.40;82.10
15483;DHT22;7843;50.330;7.312;2024-03-07T13:03:22;10.30;82.50
15483;DHT22;7843;50.330;7.312;2024-03-07T13:05:49;10.20;82.40
15483;DHT22;7843;50.330;7.312;2024-03-07T13:08:16;9.90;82.60
15483;DHT22;7843;50.330;7.312;2024-03-07T13:10:43;9.80;83.00
15483;DHT22;7843;50.330;7.312;2024-03-07T13:13:11;9.80;83.30
15483;DHT22;7843;50.330;7.312;2024-03-07T13:15:38;9.80;83.40
15483;DHT22;7843;50.330;7.312;2024-03-07T13:18:06;9.70;83.20
15483;DHT22;7843;50.330;7.312;2024-03-07T13:20:33;9.60;83.40
15483;DHT22;7843;50.330;7.312;2024-03-07T13:23:00;9.40;83.60
15483;DHT22;7843;50.330;7.312;2024-03-07T13:25:28;9.30;84.80
15483;DHT22;7843;50.330;7.312;2024-03-07T13:28:15;9.30;84.70
15483;DHT22;7843;50.330;7.312;2024-03-07T13:30:50;9.30;84.90
15483;DHT22;7843;50.330;7.312;2024-03-07T13:33:21;9.30;85.00
15483;DHT22;7843;50.330;7.312;2024-03-07T13:35:47;9.30;85.10
15483;DHT22;7843;50.330;7.312;2024-03-07T13:38:14;9.30;85.10
15483;DHT22;7843;50.330;7.312;2024-03-07T13:40:48;9.30;85.20
15483;DHT22;7843;50.330;7.312;2024-03-07T13:43:16;9.20;84.80
15483;DHT22;7843;50.330;7.312;2024-03-07T13:45:43;9.30;85.30
15483;DHT22;7843;50.330;7.312;2024-03-07T13:48:11;9.30;84.40
15483;DHT22;7843;50.330;7.312;2024-03-07T13:50:40;9.40;84.40
15483;DHT22;7843;50.330;7.312;2024-03-07T13:53:12;9.40;84.50
15483;DHT22;7843;50.330;7.312;2024-03-07T14:01:23;9.70;84.60
15483;DHT22;7843;50.330;7.312;2024-03-07T14:09:42;9.90;84.00
15483;DHT22;7843;50.330;7.312;2024-03-07T14:24:14;10.40;83.10
15483;DHT22;7843;50.330;7.312;2024-03-07T14:29:45;10.20;82.90
15483;DHT22;7843;50.330;7.312;2024-03-07T14:32:13;10.20;83.00
15483;DHT22;7843;50.330;7.312;2024-03-07T14:35:08;9.90;83.10
15483;DHT22;7843;50.330;7.312;2024-03-07T14:40:38;9.50;84.00
15483;DHT22;7843;50.330;7.312;2024-03-07T14:43:05;9.40;84.30
15483;DHT22;7843;50.330;7.312;2024-03-07T14:45:36;9.40;84.40
15483;DHT22;7843;50.330;7.312;2024-03-07T14:48:06;9.50;84.60
15483;DHT22;7843;50.330;7.312;2024-03-07T14:50:39;9.50;84.90
15483;DHT22;7843;50.330;7.312;2024-03-07T14:53:07;9.50;84.60
15483;DHT22;7843;50.330;7.312;2024-03-07T14:55:35;9.70;84.30
15483;DHT22;7843;50.330;7.312;2024-03-07T14:58:03;9.60;84.60
15483;DHT22;7843;50.330;7.312;2024-03-07T15:00:30;9.50;84.20
15483;DHT22;7843;50.330;7.312;2024-03-07T15:03:00;9.50;84.60
15483;DHT22;7843;50.330;7.312;2024-03-07T15:05:27;9.40;84.40
15483;DHT22;7843;50.330;7.312;2024-03-07T15:07:54;9.40;84.70
15483;DHT22;7843;50.330;7.312;2024-03-07T15:10:33;9.30;83.80
15483;DHT22;7843;50.330;7.312;2024-03-07T15:13:01;9.30;84.70
15483;DHT22;7843;50.330;7.312;2024-03-07T15:15:29;9.20;84.70
15483;DHT22;7843;50.330;7.312;2024-03-07T15:17:59;9.20;85.10
15483;DHT22;7843;50.330;7.312;2024-03-07T15:20:27;9.10;85.40
15483;DHT22;7843;50.330;7.312;2024-03-07T15:22:57;9.10;85.50
15483;DHT22;7843;50.330;7.312;2024-03-07T15:25:27;9.00;85.40
15483;DHT22;7843;50.330;7.312;2024-03-07T15:27:56;9.00;85.30
15483;DHT22;7843;50.330;7.312;2024-03-07T15:30:24;9.00;85.70
15483;DHT22;7843;50.330;7.312;2024-03-07T15:32:51;9.00;85.90
15483;DHT22;7843;50.330;7.312;2024-03-07T15:35:18;9.00;85.90
15483;DHT22;7843;50.330;7.312;2024-03-07T15:37:46;8.90;86.10
15483;DHT22;7843;50.330;7.312;2024-03-07T15:40:13;8.90;87.20
15483;DHT22;7843;50.330;7.312;2024-03-07T15:42:45;8.80;87.60
15483;DHT22;7843;50.330;7.312;2024-03-07T15:45:22;8.70;88.20
15483;DHT22;7843;50.330;7.312;2024-03-07T15:48:00;8.50;88.50
15483;DHT22;7843;50.330;7.312;2024-03-07T15:50:37;8.40;88.70
15483;DHT22;7843;50.330;7.312;2024-03-07T15:53:04;8.30;89.00
15483;DHT22;7843;50.330;7.312;2024-03-07T15:55:33;8.30;89.40
15483;DHT22;7843;50.330;7.312;2024-03-07T15:58:02;8.20;89.90
15483;DHT22;7843;50.330;7.312;2024-03-07T16:00:33;8.20;90.00
15483;DHT22;7843;50.330;7.312;2024-03-07T16:03:05;8.10;90.10
15483;DHT22;7843;50.330;7.312;2024-03-07T16:05:35;8.10;90.90
15483;DHT22;7843;50.330;7.312;2024-03-07T16:08:05;8.10;90.90
15483;DHT22;7843;50.330;7.312;2024-03-07T16:10:37;8.10;90.70
15483;DHT22;7843;50.330;7.312;2024-03-07T16:13:05;8.00;91.00
15483;DHT22;7843;50.330;7.312;2024-03-07T16:15:36;8.00;91.30
15483;DHT22;7843;50.330;7.312;2024-03-07T16:18:05;8.00;91.90
15483;DHT22;7843;50.330;7.312;2024-03-07T16:20:36;8.00;92.40
15483;DHT22;7843;50.330;7.312;2024-03-07T16:23:04;8.00;92.30
15483;DHT22;7843;50.330;7.312;2024-03-07T16:25:32;8.00;91.80
15483;DHT22;7843;50.330;7.312;2024-03-07T16:28:05;7.90;91.70
15483;DHT22;7843;50.330;7.312;2024-03-07T16:30:33;7.90;91.80
15483;DHT22;7843;50.330;7.312;2024-03-07T16:33:00;7.90;91.60
15483;DHT22;7843;50.330;7.312;2024-03-07T16:35:28;7.90;92.10
15483;DHT22;7843;50.330;7.312;2024-03-07T16:37:58;7.80;92.20
15483;DHT22;7843;50.330;7.312;2024-03-07T16:40:29;7.80;92.30
15483;DHT22;7843;50.330;7.312;2024-03-07T16:42:59;7.80;92.60
15483;DHT22;7843;50.330;7.312;2024-03-07T16:45:31;7.80;92.60
15483;DHT22;7843;50.330;7.312;2024-03-07T16:47:59;7.80;92.50